sensor_id;sensor_type;location;lat;lon;timestamp;P1;durP1;ratioP1;P2;durP2;ratioP2
16514;SDS011;8370;52.556;7.970;2022-08-25T00:01:39;2.30;;;2.10;;
16514;SDS011;8370;52.556;7.970;2022-08-25T00:04:09;5.68;;;2.70;;
16514;SDS011;8370;52.556;7.970;2022-08-25T00:06:37;4.88;;;2.35;;
16514;SDS011;8370;52.556;7.970;2022-08-25T00:09:03;3.58;;;2.38;;
16514;SDS011;8370;52.556;7.970;2022-08-25T00:11:31;6.45;;;2.83;;
16514;SDS011;8370;52.556;7.970;2022-08-25T00:13:59;4.15;;;2.50;;
16514;SDS011;8370;52.556;7.970;2022-08-25T00:16:28;5.13;;;2.20;;
16514;SDS011;8370;52.556;7.970;2022-08-25T00:18:56;6.97;;;2.42;;
16514;SDS011;8370;52.556;7.970;2022-08-25T00:21:24;3.67;;;2.63;;
16514;SDS011;8370;52.556;7.970;2022-08-25T00:23:51;3.15;;;2.10;;
16514;SDS011;8370;52.556;7.970;2022-08-25T00:26:17;4.63;;;1.90;;
16514;SDS011;8370;52.556;7.970;2022-08-25T00:28:43;3.10;;;2.10;;
16514;SDS011;8370;52.556;7.970;2022-08-25T00:31:13;6.05;;;2.30;;
16514;SDS011;8370;52.556;7.970;2022-08-25T00:33:42;4.28;;;2.60;;
16514;SDS011;8370;52.556;7.970;2022-08-25T00:36:11;4.05;;;2.25;;
16514;SDS011;8370;52.556;7.970;2022-08-25T00:38:39;4.57;;;2.33;;
16514;SDS011;8370;52.556;7.970;2022-08-25T00:41:07;4.53;;;2.45;;
16514;SDS011;8370;52.556;7.970;2022-08-25T00:46:12;6.35;;;2.65;;
16514;SDS011;8370;52.556;7.970;2022-08-25T00:48:42;5.50;;;2.35;;
16514;SDS011;8370;52.556;7.970;2022-08-25T00:51:10;3.80;;;2.60;;
16514;SDS011;8370;52.556;7.970;2022-08-25T00:53:40;6.22;;;2.67;;
16514;SDS011;8370;52.556;7.970;2022-08-25T00:56:07;2.97;;;2.45;;
16514;SDS011;8370;52.556;7.970;2022-08-25T00:58:33;3.92;;;2.70;;
16514;SDS011;8370;52.556;7.970;2022-08-25T01:01:01;4.13;;;2.72;;
16514;SDS011;8370;52.556;7.970;2022-08-25T01:03:28;2.47;;;2.28;;
16514;SDS011;8370;52.556;7.970;2022-08-25T01:05:57;4.63;;;2.90;;
16514;SDS011;8370;52.556;7.970;2022-08-25T01:08:24;2.70;;;2.13;;
16514;SDS011;8370;52.556;7.970;2022-08-25T01:10:52;4.28;;;2.60;;
16514;SDS011;8370;52.556;7.970;2022-08-25T01:13:19;3.40;;;2.70;;
16514;SDS011;8370;52.556;7.970;2022-08-25T01:15:51;5.22;;;2.50;;
16514;SDS011;8370;52.556;7.970;2022-08-25T01:18:19;6.40;;;3.15;;
16514;SDS011;8370;52.556;7.970;2022-08-25T01:20:49;4.80;;;2.58;;
16514;SDS011;8370;52.556;7.970;2022-08-25T01:23:17;3.65;;;2.20;;
16514;SDS011;8370;52.556;7.970;2022-08-25T01:28:27;4.50;;;2.40;;
16514;SDS011;8370;52.556;7.970;2022-08-25T01:30:53;6.40;;;3.28;;
16514;SDS011;8370;52.556;7.970;2022-08-25T01:33:19;5.88;;;3.15;;
16514;SDS011;8370;52.556;7.970;2022-08-25T01:35:45;8.23;;;3.10;;
16514;SDS011;8370;52.556;7.970;2022-08-25T01:38:11;3.33;;;2.88;;
16514;SDS011;8370;52.556;7.970;2022-08-25T01:40:37;4.22;;;2.72;;
16514;SDS011;8370;52.556;7.970;2022-08-25T01:45:36;4.57;;;3.38;;
16514;SDS011;8370;52.556;7.970;2022-08-25T01:48:04;5.20;;;2.85;;
16514;SDS011;8370;52.556;7.970;2022-08-25T01:50:31;3.50;;;3.10;;
16514;SDS011;8370;52.556;7.970;2022-08-25T01:52:58;3.95;;;3.33;;
16514;SDS011;8370;52.556;7.970;2022-08-25T01:55:30;5.22;;;2.95;;
16514;SDS011;8370;52.556;7.970;2022-08-25T01:58:15;5.78;;;3.72;;
16514;SDS011;8370;52.556;7.970;2022-08-25T02:00:52;5.40;;;3.50;;
16514;SDS011;8370;52.556;7.970;2022-08-25T02:03:21;4.43;;;3.55;;
16514;SDS011;8370;52.556;7.970;2022-08-25T02:05:48;4.35;;;3.13;;
16514;SDS011;8370;52.556;7.970;2022-08-25T02:08:13;4.55;;;3.70;;
16514;SDS011;8370;52.556;7.970;2022-08-25T02:10:39;5.95;;;3.50;;
16514;SDS011;8370;52.556;7.970;2022-08-25T02:13:05;5.53;;;3.63;;
16514;SDS011;8370;52.556;7.970;2022-08-25T02:15:32;5.45;;;4.03;;
16514;SDS011;8370;52.556;7.970;2022-08-25T02:17:58;8.10;;;3.30;;
16514;SDS011;8370;52.556;7.970;2022-08-25T02:20:24;6.25;;;3.25;;
16514;SDS011;8370;52.556;7.970;2022-08-25T02:22:50;4.38;;;3.55;;
16514;SDS011;8370;52.556;7.970;2022-08-25T02:25:17;4.20;;;3.30;;
16514;SDS011;8370;52.556;7.970;2022-08-25T02:27:43;6.53;;;3.83;;
16514;SDS011;8370;52.556;7.970;2022-08-25T02:30:09;5.43;;;3.60;;
16514;SDS011;8370;52.556;7.970;2022-08-25T02:32:37;3.95;;;3.33;;
16514;SDS011;8370;52.556;7.970;2022-08-25T02:35:03;4.85;;;3.05;;
16514;SDS011;8370;52.556;7.970;2022-08-25T02:37:30;6.32;;;3.58;;
16514;SDS011;8370;52.556;7.970;2022-08-25T02:39:55;3.90;;;3.50;;
16514;SDS011;8370;52.556;7.970;2022-08-25T02:42:21;10.75;;;3.85;;
16514;SDS011;8370;52.556;7.970;2022-08-25T02:44:48;8.02;;;3.70;;
16514;SDS011;8370;52.556;7.970;2022-08-25T02:47:13;4.78;;;3.75;;
16514;SDS011;8370;52.556;7.970;2022-08-25T02:49:39;5.13;;;3.92;;
16514;SDS011;8370;52.556;7.970;2022-08-25T02:52:05;8.23;;;3.80;;
16514;SDS011;8370;52.556;7.970;2022-08-25T02:54:30;4.40;;;3.47;;
16514;SDS011;8370;52.556;7.970;2022-08-25T02:56:56;6.68;;;3.50;;
16514;SDS011;8370;52.556;7.970;2022-08-25T02:59:22;6.65;;;4.00;;
16514;SDS011;8370;52.556;7.970;2022-08-25T03:01:47;8.63;;;4.55;;
16514;SDS011;8370;52.556;7.970;2022-08-25T03:04:13;6.70;;;3.78;;
16514;SDS011;8370;52.556;7.970;2022-08-25T03:06:38;8.32;;;4.55;;
16514;SDS011;8370;52.556;7.970;2022-08-25T03:09:04;7.95;;;4.05;;
16514;SDS011;8370;52.556;7.970;2022-08-25T03:11:30;8.43;;;4.20;;
16514;SDS011;8370;52.556;7.970;2022-08-25T03:13:56;5.13;;;4.28;;
16514;SDS011;8370;52.556;7.970;2022-08-25T03:16:21;6.88;;;4.32;;
16514;SDS011;8370;52.556;7.970;2022-08-25T03:18:47;7.40;;;4.18;;
16514;SDS011;8370;52.556;7.970;2022-08-25T03:21:13;5.27;;;3.53;;
16514;SDS011;8370;52.556;7.970;2022-08-25T03:23:40;5.30;;;3.80;;
16514;SDS011;8370;52.556;7.970;2022-08-25T03:26:06;4.22;;;3.83;;
16514;SDS011;8370;52.556;7.970;2022-08-25T03:28:50;5.05;;;3.72;;
16514;SDS011;8370;52.556;7.970;2022-08-25T03:31:18;4.80;;;3.33;;
16514;SDS011;8370;52.556;7.970;2022-08-25T03:33:44;4.60;;;4.05;;
16514;SDS011;8370;52.556;7.970;2022-08-25T03:36:10;6.80;;;4.25;;
16514;SDS011;8370;52.556;7.970;2022-08-25T03:38:36;6.40;;;4.00;;
16514;SDS011;8370;52.556;7.970;2022-08-25T03:41:09;4.50;;;3.90;;
16514;SDS011;8370;52.556;7.970;2022-08-25T03:43:36;5.70;;;4.07;;
16514;SDS011;8370;52.556;7.970;2022-08-25T03:46:02;5.17;;;3.90;;
16514;SDS011;8370;52.556;7.970;2022-08-25T03:48:27;6.82;;;3.90;;
16514;SDS011;8370;52.556;7.970;2022-08-25T03:50:53;8.35;;;3.67;;
16514;SDS011;8370;52.556;7.970;2022-08-25T03:53:19;6.07;;;3.97;;
16514;SDS011;8370;52.556;7.970;2022-08-25T03:55:44;5.63;;;3.97;;
16514;SDS011;8370;52.556;7.970;2022-08-25T03:58:10;5.20;;;4.28;;
16514;SDS011;8370;52.556;7.970;2022-08-25T04:00:36;7.13;;;4.22;;
16514;SDS011;8370;52.556;7.970;2022-08-25T04:03:01;5.95;;;4.07;;
16514;SDS011;8370;52.556;7.970;2022-08-25T04:05:27;7.22;;;3.65;;
16514;SDS011;8370;52.556;7.970;2022-08-25T04:07:53;9.43;;;4.35;;
16514;SDS011;8370;52.556;7.970;2022-08-25T04:10:19;6.65;;;3.90;;
16514;SDS011;8370;52.556;7.970;2022-08-25T04:12:44;5.93;;;4.28;;
16514;SDS011;8370;52.556;7.970;2022-08-25T04:15:11;4.85;;;3.88;;
16514;SDS011;8370;52.556;7.970;2022-08-25T04:17:37;6.30;;;3.77;;
16514;SDS011;8370;52.556;7.970;2022-08-25T04:20:04;7.82;;;3.90;;
16514;SDS011;8370;52.556;7.970;2022-08-25T04:22:32;5.00;;;3.67;;
16514;SDS011;8370;52.556;7.970;2022-08-25T04:24:58;4.63;;;3.80;;
16514;SDS011;8370;52.556;7.970;2022-08-25T04:27:23;5.10;;;3.83;;
16514;SDS011;8370;52.556;7.970;2022-08-25T04:29:49;6.30;;;4.00;;
16514;SDS011;8370;52.556;7.970;2022-08-25T04:32:14;7.13;;;4.10;;
16514;SDS011;8370;52.556;7.970;2022-08-25T04:34:40;4.97;;;4.30;;
16514;SDS011;8370;52.556;7.970;2022-08-25T04:37:07;5.20;;;4.20;;
16514;SDS011;8370;52.556;7.970;2022-08-25T04:39:33;6.37;;;4.50;;
16514;SDS011;8370;52.556;7.970;2022-08-25T04:41:58;7.10;;;4.70;;
16514;SDS011;8370;52.556;7.970;2022-08-25T04:44:25;8.27;;;4.70;;
16514;SDS011;8370;52.556;7.970;2022-08-25T04:46:51;10.07;;;4.53;;
16514;SDS011;8370;52.556;7.970;2022-08-25T04:49:16;7.00;;;4.57;;
16514;SDS011;8370;52.556;7.970;2022-08-25T04:51:42;5.33;;;4.83;;
16514;SDS011;8370;52.556;7.970;2022-08-25T04:54:09;6.87;;;4.80;;
16514;SDS011;8370;52.556;7.970;2022-08-25T04:56:38;7.83;;;5.07;;
16514;SDS011;8370;52.556;7.970;2022-08-25T04:59:06;6.83;;;5.33;;
16514;SDS011;8370;52.556;7.970;2022-08-25T05:01:33;8.53;;;4.73;;
16514;SDS011;8370;52.556;7.970;2022-08-25T05:04:00;6.37;;;4.80;;
16514;SDS011;8370;52.556;7.970;2022-08-25T05:06:27;7.23;;;5.13;;
16514;SDS011;8370;52.556;7.970;2022-08-25T05:08:53;10.27;;;5.50;;
16514;SDS011;8370;52.556;7.970;2022-08-25T05:11:19;8.50;;;5.33;;
16514;SDS011;8370;52.556;7.970;2022-08-25T05:13:46;11.13;;;5.40;;
16514;SDS011;8370;52.556;7.970;2022-08-25T05:16:13;8.67;;;5.20;;
16514;SDS011;8370;52.556;7.970;2022-08-25T05:18:39;7.70;;;4.90;;
16514;SDS011;8370;52.556;7.970;2022-08-25T05:21:05;8.37;;;5.00;;
16514;SDS011;8370;52.556;7.970;2022-08-25T05:23:33;9.60;;;5.57;;
16514;SDS011;8370;52.556;7.970;2022-08-25T05:26:06;8.70;;;5.03;;
16514;SDS011;8370;52.556;7.970;2022-08-25T05:28:34;10.33;;;6.33;;
16514;SDS011;8370;52.556;7.970;2022-08-25T05:31:01;9.70;;;6.25;;
16514;SDS011;8370;52.556;7.970;2022-08-25T05:33:30;12.73;;;7.10;;
16514;SDS011;8370;52.556;7.970;2022-08-25T05:35:56;9.23;;;5.63;;
16514;SDS011;8370;52.556;7.970;2022-08-25T05:38:21;9.43;;;5.90;;
16514;SDS011;8370;52.556;7.970;2022-08-25T05:40:47;9.50;;;5.83;;
16514;SDS011;8370;52.556;7.970;2022-08-25T05:43:17;7.47;;;5.37;;
16514;SDS011;8370;52.556;7.970;2022-08-25T05:45:42;7.17;;;5.50;;
16514;SDS011;8370;52.556;7.970;2022-08-25T05:48:08;8.03;;;5.43;;
16514;SDS011;8370;52.556;7.970;2022-08-25T05:50:33;8.95;;;5.55;;
16514;SDS011;8370;52.556;7.970;2022-08-25T05:52:59;8.00;;;5.97;;
16514;SDS011;8370;52.556;7.970;2022-08-25T05:55:24;15.00;;;6.40;;
16514;SDS011;8370;52.556;7.970;2022-08-25T05:57:50;10.07;;;6.50;;
16514;SDS011;8370;52.556;7.970;2022-08-25T06:00:15;7.80;;;6.20;;
16514;SDS011;8370;52.556;7.970;2022-08-25T06:02:41;6.68;;;5.97;;
16514;SDS011;8370;52.556;7.970;2022-08-25T06:05:16;10.77;;;5.90;;
16514;SDS011;8370;52.556;7.970;2022-08-25T06:07:44;7.97;;;6.27;;
16514;SDS011;8370;52.556;7.970;2022-08-25T06:10:11;13.00;;;6.33;;
16514;SDS011;8370;52.556;7.970;2022-08-25T06:12:38;8.23;;;6.00;;
16514;SDS011;8370;52.556;7.970;2022-08-25T06:15:08;11.20;;;6.43;;
16514;SDS011;8370;52.556;7.970;2022-08-25T06:17:34;12.80;;;6.43;;
16514;SDS011;8370;52.556;7.970;2022-08-25T06:20:04;9.82;;;6.07;;
16514;SDS011;8370;52.556;7.970;2022-08-25T06:22:31;12.88;;;6.90;;
16514;SDS011;8370;52.556;7.970;2022-08-25T06:24:56;11.45;;;7.07;;
16514;SDS011;8370;52.556;7.970;2022-08-25T06:27:22;7.93;;;6.25;;
16514;SDS011;8370;52.556;7.970;2022-08-25T06:29:47;10.25;;;7.35;;
16514;SDS011;8370;52.556;7.970;2022-08-25T06:32:13;10.97;;;6.73;;
16514;SDS011;8370;52.556;7.970;2022-08-25T06:34:38;10.20;;;6.93;;
16514;SDS011;8370;52.556;7.970;2022-08-25T06:37:04;11.98;;;6.88;;
16514;SDS011;8370;52.556;7.970;2022-08-25T06:39:29;11.27;;;6.38;;
16514;SDS011;8370;52.556;7.970;2022-08-25T06:41:55;12.57;;;6.22;;
16514;SDS011;8370;52.556;7.970;2022-08-25T06:44:22;13.45;;;7.75;;
16514;SDS011;8370;52.556;7.970;2022-08-25T06:46:48;8.70;;;6.18;;
16514;SDS011;8370;52.556;7.970;2022-08-25T06:49:14;11.15;;;6.50;;
16514;SDS011;8370;52.556;7.970;2022-08-25T06:51:40;10.68;;;7.22;;
16514;SDS011;8370;52.556;7.970;2022-08-25T06:54:06;14.70;;;7.00;;
16514;SDS011;8370;52.556;7.970;2022-08-25T06:56:34;12.48;;;6.40;;
16514;SDS011;8370;52.556;7.970;2022-08-25T06:59:01;8.98;;;6.03;;
16514;SDS011;8370;52.556;7.970;2022-08-25T07:01:27;8.30;;;5.75;;
16514;SDS011;8370;52.556;7.970;2022-08-25T07:03:54;11.18;;;6.50;;
16514;SDS011;8370;52.556;7.970;2022-08-25T07:06:22;9.27;;;5.50;;
16514;SDS011;8370;52.556;7.970;2022-08-25T07:08:48;7.65;;;5.22;;
16514;SDS011;8370;52.556;7.970;2022-08-25T07:11:14;8.00;;;4.82;;
16514;SDS011;8370;52.556;7.970;2022-08-25T07:13:40;9.25;;;5.25;;
16514;SDS011;8370;52.556;7.970;2022-08-25T07:16:06;10.02;;;4.78;;
16514;SDS011;8370;52.556;7.970;2022-08-25T07:18:32;10.88;;;4.93;;
16514;SDS011;8370;52.556;7.970;2022-08-25T07:20:59;6.50;;;4.90;;
16514;SDS011;8370;52.556;7.970;2022-08-25T07:23:25;9.32;;;5.35;;
16514;SDS011;8370;52.556;7.970;2022-08-25T07:25:51;10.48;;;5.32;;
16514;SDS011;8370;52.556;7.970;2022-08-25T07:28:18;5.75;;;4.10;;
16514;SDS011;8370;52.556;7.970;2022-08-25T07:30:45;7.18;;;4.65;;
16514;SDS011;8370;52.556;7.970;2022-08-25T07:33:11;7.78;;;4.20;;
16514;SDS011;8370;52.556;7.970;2022-08-25T07:35:36;5.65;;;4.30;;
16514;SDS011;8370;52.556;7.970;2022-08-25T07:38:03;7.32;;;4.63;;
16514;SDS011;8370;52.556;7.970;2022-08-25T07:40:32;5.43;;;4.72;;
16514;SDS011;8370;52.556;7.970;2022-08-25T07:43:00;7.78;;;5.32;;
16514;SDS011;8370;52.556;7.970;2022-08-25T07:45:32;8.38;;;4.60;;
16514;SDS011;8370;52.556;7.970;2022-08-25T07:48:01;8.30;;;4.65;;
16514;SDS011;8370;52.556;7.970;2022-08-25T07:50:30;6.53;;;4.47;;
16514;SDS011;8370;52.556;7.970;2022-08-25T07:52:57;7.30;;;4.50;;
16514;SDS011;8370;52.556;7.970;2022-08-25T07:55:23;5.03;;;3.90;;
16514;SDS011;8370;52.556;7.970;2022-08-25T07:57:50;6.35;;;4.68;;
16514;SDS011;8370;52.556;7.970;2022-08-25T08:00:16;9.55;;;4.35;;
16514;SDS011;8370;52.556;7.970;2022-08-25T08:02:42;9.13;;;4.25;;
16514;SDS011;8370;52.556;7.970;2022-08-25T08:05:09;9.40;;;4.30;;
16514;SDS011;8370;52.556;7.970;2022-08-25T08:07:36;9.77;;;4.38;;
16514;SDS011;8370;52.556;7.970;2022-08-25T08:10:02;5.55;;;4.20;;
16514;SDS011;8370;52.556;7.970;2022-08-25T08:12:30;6.43;;;4.25;;
16514;SDS011;8370;52.556;7.970;2022-08-25T08:14:56;7.03;;;4.32;;
16514;SDS011;8370;52.556;7.970;2022-08-25T08:17:22;7.47;;;4.60;;
16514;SDS011;8370;52.556;7.970;2022-08-25T08:19:48;7.82;;;4.75;;
16514;SDS011;8370;52.556;7.970;2022-08-25T08:22:14;7.78;;;4.22;;
16514;SDS011;8370;52.556;7.970;2022-08-25T08:24:40;6.97;;;4.13;;
16514;SDS011;8370;52.556;7.970;2022-08-25T08:27:08;9.02;;;4.32;;
16514;SDS011;8370;52.556;7.970;2022-08-25T08:29:36;6.30;;;4.18;;
16514;SDS011;8370;52.556;7.970;2022-08-25T08:32:03;7.82;;;5.07;;
16514;SDS011;8370;52.556;7.970;2022-08-25T08:34:30;6.90;;;4.10;;
16514;SDS011;8370;52.556;7.970;2022-08-25T08:36:56;9.98;;;4.40;;
16514;SDS011;8370;52.556;7.970;2022-08-25T08:39:22;7.38;;;4.40;;
16514;SDS011;8370;52.556;7.970;2022-08-25T08:47:17;6.28;;;4.47;;
16514;SDS011;8370;52.556;7.970;2022-08-25T08:50:23;8.05;;;4.10;;
16514;SDS011;8370;52.556;7.970;2022-08-25T08:56:08;8.93;;;4.63;;
16514;SDS011;8370;52.556;7.970;2022-08-25T08:58:49;6.05;;;4.10;;
16514;SDS011;8370;52.556;7.970;2022-08-25T09:01:23;8.18;;;5.00;;
16514;SDS011;8370;52.556;7.970;2022-08-25T09:04:03;6.75;;;4.30;;
16514;SDS011;8370;52.556;7.970;2022-08-25T09:06:46;10.30;;;5.03;;
16514;SDS011;8370;52.556;7.970;2022-08-25T09:09:30;7.03;;;5.07;;
16514;SDS011;8370;52.556;7.970;2022-08-25T09:23:21;5.38;;;4.65;;
16514;SDS011;8370;52.556;7.970;2022-08-25T09:28:40;8.32;;;4.97;;
16514;SDS011;8370;52.556;7.970;2022-08-25T09:33:43;10.90;;;6.57;;
16514;SDS011;8370;52.556;7.970;2022-08-25T09:36:09;8.68;;;4.80;;
16514;SDS011;8370;52.556;7.970;2022-08-25T09:38:35;10.70;;;4.97;;
16514;SDS011;8370;52.556;7.970;2022-08-25T09:41:00;13.02;;;5.55;;
16514;SDS011;8370;52.556;7.970;2022-08-25T09:51:48;6.28;;;4.10;;
16514;SDS011;8370;52.556;7.970;2022-08-25T09:56:56;7.00;;;4.47;;
16514;SDS011;8370;52.556;7.970;2022-08-25T09:59:28;8.13;;;4.30;;
16514;SDS011;8370;52.556;7.970;2022-08-25T10:02:23;8.35;;;4.55;;
16514;SDS011;8370;52.556;7.970;2022-08-25T10:04:49;7.32;;;4.82;;
16514;SDS011;8370;52.556;7.970;2022-08-25T10:09:51;7.80;;;5.35;;
16514;SDS011;8370;52.556;7.970;2022-08-25T10:12:36;9.05;;;4.45;;
16514;SDS011;8370;52.556;7.970;2022-08-25T10:15:15;9.15;;;4.47;;
16514;SDS011;8370;52.556;7.970;2022-08-25T10:17:47;7.47;;;4.53;;
16514;SDS011;8370;52.556;7.970;2022-08-25T10:20:17;5.93;;;4.60;;
16514;SDS011;8370;52.556;7.970;2022-08-25T10:22:46;6.78;;;4.72;;
16514;SDS011;8370;52.556;7.970;2022-08-25T10:25:14;6.88;;;4.97;;
16514;SDS011;8370;52.556;7.970;2022-08-25T10:31:01;6.15;;;4.30;;
16514;SDS011;8370;52.556;7.970;2022-08-25T10:36:31;12.65;;;4.90;;
16514;SDS011;8370;52.556;7.970;2022-08-25T10:39:14;6.43;;;4.43;;
16514;SDS011;8370;52.556;7.970;2022-08-25T10:42:21;6.53;;;4.50;;
16514;SDS011;8370;52.556;7.970;2022-08-25T10:48:16;10.07;;;4.43;;
16514;SDS011;8370;52.556;7.970;2022-08-25T10:51:05;6.55;;;4.55;;
16514;SDS011;8370;52.556;7.970;2022-08-25T10:54:15;6.05;;;4.72;;
16514;SDS011;8370;52.556;7.970;2022-08-25T10:56:57;7.80;;;4.63;;
16514;SDS011;8370;52.556;7.970;2022-08-25T11:05:41;5.18;;;3.80;;
16514;SDS011;8370;52.556;7.970;2022-08-25T11:08:22;4.45;;;3.90;;
16514;SDS011;8370;52.556;7.970;2022-08-25T11:11:07;5.93;;;3.50;;
16514;SDS011;8370;52.556;7.970;2022-08-25T11:13:54;5.57;;;4.55;;
16514;SDS011;8370;52.556;7.970;2022-08-25T11:16:35;8.38;;;4.88;;
16514;SDS011;8370;52.556;7.970;2022-08-25T11:19:06;8.25;;;4.13;;
16514;SDS011;8370;52.556;7.970;2022-08-25T11:22:05;4.80;;;4.30;;
16514;SDS011;8370;52.556;7.970;2022-08-25T11:24:59;8.85;;;4.57;;
16514;SDS011;8370;52.556;7.970;2022-08-25T11:27:32;6.95;;;4.28;;
16514;SDS011;8370;52.556;7.970;2022-08-25T11:30:06;6.53;;;4.32;;
16514;SDS011;8370;52.556;7.970;2022-08-25T11:32:35;5.50;;;3.75;;
16514;SDS011;8370;52.556;7.970;2022-08-25T11:35:02;5.65;;;4.55;;
16514;SDS011;8370;52.556;7.970;2022-08-25T11:37:43;6.90;;;4.00;;
16514;SDS011;8370;52.556;7.970;2022-08-25T11:40:34;7.00;;;4.35;;
16514;SDS011;8370;52.556;7.970;2022-08-25T11:43:12;8.73;;;4.38;;
16514;SDS011;8370;52.556;7.970;2022-08-25T11:48:49;8.65;;;3.95;;
16514;SDS011;8370;52.556;7.970;2022-08-25T11:51:26;7.85;;;4.18;;
16514;SDS011;8370;52.556;7.970;2022-08-25T11:56:37;8.07;;;3.90;;
16514;SDS011;8370;52.556;7.970;2022-08-25T11:59:05;6.38;;;4.05;;
16514;SDS011;8370;52.556;7.970;2022-08-25T12:07:14;4.07;;;3.65;;
16514;SDS011;8370;52.556;7.970;2022-08-25T12:09:30;6.10;;;5.15;;
16514;SDS011;8370;52.556;7.970;2022-08-25T12:11:57;5.90;;;4.35;;
16514;SDS011;8370;52.556;7.970;2022-08-25T12:36:01;6.03;;;4.78;;
16514;SDS011;8370;52.556;7.970;2022-08-25T12:38:37;5.72;;;4.50;;
16514;SDS011;8370;52.556;7.970;2022-08-25T12:41:15;5.50;;;4.40;;
16514;SDS011;8370;52.556;7.970;2022-08-25T12:43:48;8.90;;;5.65;;
16514;SDS011;8370;52.556;7.970;2022-08-25T12:48:56;5.57;;;4.55;;
16514;SDS011;8370;52.556;7.970;2022-08-25T12:51:47;5.40;;;4.82;;
16514;SDS011;8370;52.556;7.970;2022-08-25T13:00:09;8.93;;;4.38;;
16514;SDS011;8370;52.556;7.970;2022-08-25T13:05:46;8.23;;;6.00;;
16514;SDS011;8370;52.556;7.970;2022-08-25T13:08:44;6.70;;;5.20;;
16514;SDS011;8370;52.556;7.970;2022-08-25T13:11:38;6.75;;;5.43;;
16514;SDS011;8370;52.556;7.970;2022-08-25T13:14:31;8.25;;;5.60;;
16514;SDS011;8370;52.556;7.970;2022-08-25T13:16:58;9.02;;;6.05;;
16514;SDS011;8370;52.556;7.970;2022-08-25T13:19:25;7.20;;;5.22;;
16514;SDS011;8370;52.556;7.970;2022-08-25T13:21:52;7.45;;;5.10;;
16514;SDS011;8370;52.556;7.970;2022-08-25T13:24:31;7.30;;;5.65;;
16514;SDS011;8370;52.556;7.970;2022-08-25T13:27:01;8.07;;;5.53;;
16514;SDS011;8370;52.556;7.970;2022-08-25T13:29:30;7.88;;;5.50;;
16514;SDS011;8370;52.556;7.970;2022-08-25T13:31:58;7.72;;;5.82;;
16514;SDS011;8370;52.556;7.970;2022-08-25T13:34:30;7.07;;;5.30;;
16514;SDS011;8370;52.556;7.970;2022-08-25T13:37:03;7.22;;;5.35;;
16514;SDS011;8370;52.556;7.970;2022-08-25T13:40:07;12.35;;;5.78;;
16514;SDS011;8370;52.556;7.970;2022-08-25T13:42:49;9.27;;;5.45;;
16514;SDS011;8370;52.556;7.970;2022-08-25T13:45:17;8.63;;;5.47;;
16514;SDS011;8370;52.556;7.970;2022-08-25T13:47:45;8.68;;;5.60;;
16514;SDS011;8370;52.556;7.970;2022-08-25T13:50:28;8.32;;;5.13;;
16514;SDS011;8370;52.556;7.970;2022-08-25T13:52:58;8.45;;;5.45;;
16514;SDS011;8370;52.556;7.970;2022-08-25T13:55:47;7.18;;;5.15;;
16514;SDS011;8370;52.556;7.970;2022-08-25T13:58:16;6.78;;;5.97;;
16514;SDS011;8370;52.556;7.970;2022-08-25T14:03:41;6.45;;;5.40;;
16514;SDS011;8370;52.556;7.970;2022-08-25T14:06:17;8.32;;;6.18;;
16514;SDS011;8370;52.556;7.970;2022-08-25T14:08:45;6.68;;;5.72;;
16514;SDS011;8370;52.556;7.970;2022-08-25T14:11:47;6.78;;;5.25;;
16514;SDS011;8370;52.556;7.970;2022-08-25T14:16:47;7.30;;;5.57;;
16514;SDS011;8370;52.556;7.970;2022-08-25T14:19:16;7.30;;;5.40;;
16514;SDS011;8370;52.556;7.970;2022-08-25T14:21:44;7.03;;;5.05;;
16514;SDS011;8370;52.556;7.970;2022-08-25T14:24:14;14.65;;;6.03;;
16514;SDS011;8370;52.556;7.970;2022-08-25T14:26:41;7.57;;;5.07;;
16514;SDS011;8370;52.556;7.970;2022-08-25T14:29:06;10.85;;;5.88;;
16514;SDS011;8370;52.556;7.970;2022-08-25T14:31:32;13.00;;;7.13;;
16514;SDS011;8370;52.556;7.970;2022-08-25T14:34:07;8.25;;;6.00;;
16514;SDS011;8370;52.556;7.970;2022-08-25T14:36:37;6.93;;;5.43;;
16514;SDS011;8370;52.556;7.970;2022-08-25T14:39:03;6.53;;;5.00;;
16514;SDS011;8370;52.556;7.970;2022-08-25T14:41:30;7.22;;;5.50;;
16514;SDS011;8370;52.556;7.970;2022-08-25T14:43:58;8.13;;;5.65;;
16514;SDS011;8370;52.556;7.970;2022-08-25T14:46:25;7.07;;;5.72;;
16514;SDS011;8370;52.556;7.970;2022-08-25T14:48:53;8.20;;;5.50;;
16514;SDS011;8370;52.556;7.970;2022-08-25T14:51:22;10.80;;;6.13;;
16514;SDS011;8370;52.556;7.970;2022-08-25T14:53:49;10.10;;;5.63;;
16514;SDS011;8370;52.556;7.970;2022-08-25T14:56:17;6.30;;;5.38;;
16514;SDS011;8370;52.556;7.970;2022-08-25T14:58:43;10.57;;;5.70;;
16514;SDS011;8370;52.556;7.970;2022-08-25T15:01:10;6.05;;;5.47;;
16514;SDS011;8370;52.556;7.970;2022-08-25T15:03:39;8.13;;;5.53;;
16514;SDS011;8370;52.556;7.970;2022-08-25T15:06:07;6.70;;;6.00;;
16514;SDS011;8370;52.556;7.970;2022-08-25T15:08:36;9.95;;;5.68;;
16514;SDS011;8370;52.556;7.970;2022-08-25T15:11:20;9.27;;;5.45;;
16514;SDS011;8370;52.556;7.970;2022-08-25T15:13:45;7.85;;;5.95;;
16514;SDS011;8370;52.556;7.970;2022-08-25T15:16:24;8.77;;;6.35;;
16514;SDS011;8370;52.556;7.970;2022-08-25T15:18:52;9.45;;;6.07;;
16514;SDS011;8370;52.556;7.970;2022-08-25T15:21:18;9.32;;;6.25;;
16514;SDS011;8370;52.556;7.970;2022-08-25T15:23:43;13.18;;;5.70;;
16514;SDS011;8370;52.556;7.970;2022-08-25T15:26:10;13.13;;;5.95;;
16514;SDS011;8370;52.556;7.970;2022-08-25T15:28:38;7.70;;;6.75;;
16514;SDS011;8370;52.556;7.970;2022-08-25T15:31:06;13.02;;;6.20;;
16514;SDS011;8370;52.556;7.970;2022-08-25T15:33:32;7.20;;;5.63;;
16514;SDS011;8370;52.556;7.970;2022-08-25T15:35:57;7.93;;;5.90;;
16514;SDS011;8370;52.556;7.970;2022-08-25T15:38:23;8.27;;;5.90;;
16514;SDS011;8370;52.556;7.970;2022-08-25T15:40:48;9.20;;;5.90;;
16514;SDS011;8370;52.556;7.970;2022-08-25T15:43:14;12.55;;;5.88;;
16514;SDS011;8370;52.556;7.970;2022-08-25T15:45:40;8.45;;;5.47;;
16514;SDS011;8370;52.556;7.970;2022-08-25T15:48:06;13.73;;;6.32;;
16514;SDS011;8370;52.556;7.970;2022-08-25T15:50:32;6.82;;;5.90;;
16514;SDS011;8370;52.556;7.970;2022-08-25T15:52:57;8.43;;;6.03;;
16514;SDS011;8370;52.556;7.970;2022-08-25T15:55:23;7.47;;;5.65;;
16514;SDS011;8370;52.556;7.970;2022-08-25T15:57:49;7.82;;;5.70;;
16514;SDS011;8370;52.556;7.970;2022-08-25T16:00:15;8.05;;;5.70;;
16514;SDS011;8370;52.556;7.970;2022-08-25T16:02:41;9.00;;;6.07;;
16514;SDS011;8370;52.556;7.970;2022-08-25T16:05:07;8.82;;;5.68;;
16514;SDS011;8370;52.556;7.970;2022-08-25T16:07:34;8.27;;;5.55;;
16514;SDS011;8370;52.556;7.970;2022-08-25T16:10:00;8.25;;;5.63;;
16514;SDS011;8370;52.556;7.970;2022-08-25T16:12:26;9.10;;;4.88;;
16514;SDS011;8370;52.556;7.970;2022-08-25T16:14:51;10.98;;;6.10;;
16514;SDS011;8370;52.556;7.970;2022-08-25T16:17:17;11.38;;;5.68;;
16514;SDS011;8370;52.556;7.970;2022-08-25T16:19:43;6.28;;;5.18;;
16514;SDS011;8370;52.556;7.970;2022-08-25T16:22:10;11.25;;;5.00;;
16514;SDS011;8370;52.556;7.970;2022-08-25T16:24:40;9.93;;;5.43;;
16514;SDS011;8370;52.556;7.970;2022-08-25T16:27:09;7.88;;;5.20;;
16514;SDS011;8370;52.556;7.970;2022-08-25T16:29:36;8.95;;;5.57;;
16514;SDS011;8370;52.556;7.970;2022-08-25T16:32:04;8.85;;;5.32;;
16514;SDS011;8370;52.556;7.970;2022-08-25T16:34:31;8.23;;;4.90;;
16514;SDS011;8370;52.556;7.970;2022-08-25T16:36:57;7.28;;;4.85;;
16514;SDS011;8370;52.556;7.970;2022-08-25T16:39:23;6.93;;;5.10;;
16514;SDS011;8370;52.556;7.970;2022-08-25T16:41:49;8.07;;;5.10;;
16514;SDS011;8370;52.556;7.970;2022-08-25T16:44:16;7.55;;;4.78;;
16514;SDS011;8370;52.556;7.970;2022-08-25T16:46:42;6.88;;;5.43;;
16514;SDS011;8370;52.556;7.970;2022-08-25T16:49:09;7.90;;;5.28;;
16514;SDS011;8370;52.556;7.970;2022-08-25T16:51:36;7.03;;;5.57;;
16514;SDS011;8370;52.556;7.970;2022-08-25T16:54:03;8.38;;;5.10;;
16514;SDS011;8370;52.556;7.970;2022-08-25T16:56:48;8.30;;;5.20;;
16514;SDS011;8370;52.556;7.970;2022-08-25T16:59:13;6.10;;;5.40;;
16514;SDS011;8370;52.556;7.970;2022-08-25T17:01:40;9.85;;;5.68;;
16514;SDS011;8370;52.556;7.970;2022-08-25T17:04:06;8.05;;;5.30;;
16514;SDS011;8370;52.556;7.970;2022-08-25T17:06:34;7.18;;;5.25;;